Terminal Aerodrome Forecast
Issued by NWS

Current Version | Previous Version | Text Only | Print | Product List | Glossary Off
Versions: 1 2 3 4 5 6 7 8 9 10 11 12 13 14 15 16 17 18 19 20 21 22 23 24

000
FTUS41 KRLX 032339
TAFCKB
TAF
KCKB 032339Z 0400/0424 VRB03KT P6SM OVC030
     FM040300 00000KT P6SM OVC040
     FM040700 00000KT P6SM BKN200
     FM041700 08005KT P6SM BKN150=

USA.gov is the U.S. government's official web portal to all federal, state and local government web resources and services.